Time;durP1;ratioP1;P1;durP2;ratioP2;P2;SDS_P1;SDS_P2;PMS_P1;PMS_P2;Temp;Humidity;BMP_temperature;BMP_pressure;BME280_temperature;BME280_humidity;BME280_pressure;Samples;Min_cycle;Max_cycle;Signal;HPM_P1;HPM_P2
2021/06/22 00:00:59;;;;;;;2.63;2.00;;;21.10;99.90;;;;;;5072120;28;20036;-90
2021/06/22 00:03:24;;;;;;;5.93;2.30;;;21.10;99.90;;;;;;5075425;28;20028;-91
2021/06/22 00:05:50;;;;;;;2.50;2.00;;;21.20;99.90;;;;;;5076585;28;20032;-90
2021/06/22 00:08:16;;;;;;;4.25;2.20;;;21.20;99.90;;;;;;5076397;28;20106;-91
2021/06/22 00:10:41;;;;;;;3.45;2.20;;;21.20;99.90;;;;;;5075750;28;20034;-91
2021/06/22 00:13:07;;;;;;;3.42;1.98;;;21.00;99.90;;;;;;5075938;28;20028;-91
2021/06/22 00:15:33;;;;;;;4.38;2.25;;;21.00;99.90;;;;;;5075451;28;20044;-91
2021/06/22 00:17:59;;;;;;;3.95;1.90;;;21.00;99.90;;;;;;5076444;28;20032;-91
2021/06/22 00:20:24;;;;;;;3.28;1.90;;;20.80;99.90;;;;;;5076052;28;20133;-91
2021/06/22 00:22:52;;;;;;;4.03;2.38;;;20.90;99.90;;;;;;5075507;28;20032;-90
2021/06/22 00:25:18;;;;;;;4.88;2.00;;;21.00;99.90;;;;;;5074320;28;20020;-90
2021/06/22 00:27:44;;;;;;;6.75;2.00;;;20.90;99.90;;;;;;5074458;28;20067;-90
2021/06/22 00:30:11;;;;;;;2.22;1.70;;;20.80;99.90;;;;;;5075606;28;20059;-92
2021/06/22 00:32:37;;;;;;;3.10;2.22;;;20.70;99.90;;;;;;5074356;28;20031;-91
2021/06/22 00:35:04;;;;;;;4.78;2.30;;;20.50;99.90;;;;;;5075636;28;20056;-91
2021/06/22 00:37:30;;;;;;;4.85;2.30;;;20.50;99.90;;;;;;5074010;28;20028;-92
2021/06/22 00:39:56;;;;;;;4.97;2.17;;;20.50;99.90;;;;;;5074829;28;20034;-91
2021/06/22 00:42:21;;;;;;;7.88;2.00;;;20.60;99.90;;;;;;5074450;28;20028;-90
2021/06/22 00:44:48;;;;;;;4.45;2.17;;;20.50;99.90;;;;;;5074770;28;20021;-91
2021/06/22 00:47:17;;;;;;;3.80;2.20;;;20.50;99.90;;;;;;5076236;28;20028;-92
2021/06/22 00:49:44;;;;;;;2.20;1.85;;;20.40;99.90;;;;;;5087546;28;20455;-91
2021/06/22 00:52:10;;;;;;;5.43;2.30;;;20.40;99.90;;;;;;5092596;28;20056;-90
2021/06/22 00:54:37;;;;;;;4.68;2.25;;;20.50;1.00;;;;;;5092853;28;20028;-91
2021/06/22 00:57:06;;;;;;;4.45;2.17;;;20.50;1.00;;;;;;5093485;28;20096;-92
2021/06/22 00:59:32;;;;;;;4.70;2.47;;;20.60;1.00;;;;;;5093118;28;20113;-90
2021/06/22 01:01:58;;;;;;;3.20;2.17;;;20.60;1.00;;;;;;5091650;28;20309;-92
2021/06/22 01:04:26;;;;;;;3.97;2.00;;;20.40;1.00;;;;;;5093181;28;20029;-91
2021/06/22 01:06:57;;;;;;;3.67;2.10;;;20.40;1.00;;;;;;5093475;28;20051;-91
2021/06/22 01:09:23;;;;;;;4.82;2.20;;;20.50;1.00;;;;;;5093417;28;20035;-92
2021/06/22 01:11:49;;;;;;;3.28;1.90;;;20.60;1.00;;;;;;5081651;28;20032;-91
2021/06/22 01:14:15;;;;;;;2.38;1.80;;;20.40;1.00;;;;;;5072640;28;20067;-91
2021/06/22 01:16:40;;;;;;;3.22;1.80;;;20.30;99.90;;;;;;5073572;28;20500;-90
2021/06/22 01:19:08;;;;;;;3.13;1.73;;;20.20;1.00;;;;;;5074879;28;20032;-91
2021/06/22 01:21:35;;;;;;;1.65;1.55;;;20.20;1.00;;;;;;5074652;28;20025;-91
2021/06/22 01:24:07;;;;;;;5.78;2.10;;;20.30;1.00;;;;;;5075438;28;20035;-91
2021/06/22 01:26:35;;;;;;;6.47;2.63;;;20.20;1.00;;;;;;5073554;28;20021;-90
2021/06/22 01:29:01;;;;;;;3.75;2.28;;;20.10;1.00;;;;;;5074130;28;20485;-90
2021/06/22 01:31:27;;;;;;;4.05;2.35;;;19.90;1.00;;;;;;5073214;28;20078;-90
2021/06/22 01:33:53;;;;;;;6.40;3.08;;;19.90;1.00;;;;;;5074481;28;20037;-91
2021/06/22 01:36:20;;;;;;;5.07;2.30;;;19.80;1.00;;;;;;5074889;28;20115;-91
2021/06/22 01:38:47;;;;;;;7.30;2.40;;;19.50;1.00;;;;;;5073579;28;20032;-90
2021/06/22 01:41:12;;;;;;;6.30;2.45;;;19.70;1.00;;;;;;5074356;28;20067;-91
2021/06/22 01:43:38;;;;;;;3.53;2.20;;;19.70;1.00;;;;;;5073589;28;20416;-90
2021/06/22 01:46:05;;;;;;;5.25;2.03;;;19.70;1.00;;;;;;5074302;28;20064;-91
2021/06/22 01:48:31;;;;;;;5.07;2.20;;;19.20;1.00;;;;;;5074135;28;20024;-90
2021/06/22 01:50:57;;;;;;;4.68;1.98;;;18.90;1.00;;;;;;5074476;28;20504;-91
2021/06/22 01:53:23;;;;;;;3.60;1.80;;;18.80;1.00;;;;;;5074627;28;20112;-90
2021/06/22 01:55:50;;;;;;;3.97;1.67;;;18.60;1.00;;;;;;5072245;28;20425;-90
2021/06/22 01:58:18;;;;;;;2.42;1.40;;;18.50;1.00;;;;;;5073507;28;20185;-90
2021/06/22 02:00:47;;;;;;;3.15;1.52;;;18.40;1.00;;;;;;5072974;28;20409;-91
2021/06/22 02:03:16;;;;;;;2.97;1.55;;;18.20;1.00;;;;;;5072957;28;20512;-90
2021/06/22 02:05:42;;;;;;;4.97;1.90;;;18.10;1.00;;;;;;5074529;28;20029;-90
2021/06/22 02:08:09;;;;;;;3.63;1.70;;;18.20;1.00;;;;;;5074159;28;20024;-91
2021/06/22 02:10:34;;;;;;;2.88;1.85;;;18.20;1.00;;;;;;5073870;28;20032;-91
2021/06/22 02:13:00;;;;;;;5.72;1.70;;;18.30;1.00;;;;;;5073524;28;20039;-91
2021/06/22 02:15:26;;;;;;;4.85;1.95;;;18.20;1.00;;;;;;5073462;28;20044;-90
2021/06/22 02:17:51;;;;;;;2.67;1.45;;;18.00;1.00;;;;;;5073906;28;20033;-91
2021/06/22 02:20:17;;;;;;;2.45;1.40;;;18.00;1.00;;;;;;5074584;28;20437;-91
2021/06/22 02:22:43;;;;;;;2.72;1.60;;;18.00;1.00;;;;;;5085832;28;20501;-90
2021/06/22 02:25:10;;;;;;;3.53;1.50;;;18.00;1.00;;;;;;5089143;28;20027;-91
2021/06/22 02:27:36;;;;;;;2.72;1.70;;;18.00;1.00;;;;;;5072513;28;20535;-91
2021/06/22 02:30:13;;;;;;;4.03;1.70;;;18.40;1.00;;;;;;5073547;28;20021;-91
2021/06/22 02:32:40;;;;;;;4.35;1.90;;;18.60;1.00;;;;;;5074053;28;20400;-90
2021/06/22 02:35:07;;;;;;;6.25;2.00;;;18.80;1.00;;;;;;5073493;28;20029;-90
2021/06/22 02:37:34;;;;;;;3.10;1.80;;;18.70;1.00;;;;;;5072016;28;20047;-94
2021/06/22 02:40:00;;;;;;;2.22;1.25;;;18.70;1.00;;;;;;5072809;28;20024;-92
2021/06/22 02:42:25;;;;;;;3.15;2.03;;;18.80;1.00;;;;;;5073154;28;20437;-91
2021/06/22 02:44:51;;;;;;;4.43;1.77;;;18.50;1.00;;;;;;5073598;28;20031;-91
2021/06/22 02:47:17;;;;;;;2.72;1.70;;;18.70;1.00;;;;;;5073469;28;20417;-92
2021/06/22 02:49:43;;;;;;;3.50;1.92;;;18.60;1.00;;;;;;5072005;28;20039;-91
2021/06/22 02:52:09;;;;;;;5.30;2.05;;;18.60;1.00;;;;;;5073294;28;20025;-91
2021/06/22 02:54:38;;;;;;;1.85;1.40;;;18.70;1.00;;;;;;5073814;28;20024;-92
2021/06/22 02:57:12;;;;;;;4.22;1.90;;;18.70;1.00;;;;;;5073161;28;20040;-91
2021/06/22 02:59:39;;;;;;;2.13;1.40;;;18.60;1.00;;;;;;5072399;28;20028;-91
2021/06/22 03:02:05;;;;;;;3.25;1.80;;;18.90;1.00;;;;;;5073550;28;20074;-92
2021/06/22 03:04:31;;;;;;;3.40;1.60;;;18.50;1.00;;;;;;5073494;28;20046;-91
2021/06/22 03:06:57;;;;;;;2.92;1.45;;;18.60;1.00;;;;;;5073342;28;20392;-91
2021/06/22 03:09:23;;;;;;;2.83;1.50;;;18.80;1.00;;;;;;5072043;28;20032;-91
2021/06/22 03:11:51;;;;;;;4.75;1.50;;;18.80;1.00;;;;;;5072943;28;20047;-92
2021/06/22 03:14:17;;;;;;;4.05;1.92;;;18.70;1.00;;;;;;5073304;28;20063;-91
2021/06/22 03:16:44;;;;;;;5.70;1.58;;;18.50;1.00;;;;;;5072789;28;20054;-90
2021/06/22 03:19:10;;;;;;;2.15;1.50;;;18.60;1.00;;;;;;5073038;28;20162;-91
2021/06/22 03:21:36;;;;;;;3.65;1.60;;;19.00;1.00;;;;;;5072932;28;20031;-91
2021/06/22 03:24:03;;;;;;;5.13;1.73;;;18.70;1.00;;;;;;5071773;28;20025;-92
2021/06/22 03:26:28;;;;;;;5.28;1.48;;;18.70;1.00;;;;;;5070035;28;20492;-91
2021/06/22 03:28:54;;;;;;;2.95;1.55;;;18.80;1.00;;;;;;5073633;28;20025;-91
2021/06/22 03:31:20;;;;;;;4.70;1.52;;;18.60;1.00;;;;;;5071813;28;20052;-91
2021/06/22 03:33:45;;;;;;;2.70;1.50;;;19.10;1.00;;;;;;5073095;28;20115;-92
2021/06/22 03:36:11;;;;;;;2.90;1.80;;;18.60;1.00;;;;;;5074687;28;20416;-92
2021/06/22 03:38:36;;;;;;;2.88;1.60;;;18.70;1.00;;;;;;5076053;28;20149;-92
2021/06/22 03:41:02;;;;;;;3.38;1.50;;;18.70;1.00;;;;;;5076897;28;20024;-92
2021/06/22 03:43:28;;;;;;;2.13;1.40;;;18.50;1.00;;;;;;5076998;28;20133;-92
2021/06/22 03:45:54;;;;;;;3.63;1.40;;;18.60;1.00;;;;;;5092438;28;20051;-91
2021/06/22 03:48:20;;;;;;;3.08;1.60;;;18.50;1.00;;;;;;5077194;28;20050;-92
2021/06/22 03:50:46;;;;;;;3.15;1.70;;;18.40;1.00;;;;;;5077283;28;20021;-92
2021/06/22 03:53:11;;;;;;;4.00;1.30;;;18.20;1.00;;;;;;5076806;28;20100;-92
2021/06/22 03:55:37;;;;;;;2.22;1.30;;;18.20;1.00;;;;;;5076449;28;20040;-92
2021/06/22 03:58:04;;;;;;;2.15;1.45;;;18.20;1.00;;;;;;5076257;28;20605;-92
2021/06/22 04:00:30;;;;;;;2.42;1.42;;;18.20;1.00;;;;;;5076617;28;20058;-92
2021/06/22 04:02:59;;;;;;;3.95;1.60;;;18.40;1.00;;;;;;5076831;28;20044;-91
2021/06/22 04:05:25;;;;;;;1.80;1.50;;;18.30;1.00;;;;;;5076664;28;20034;-92
2021/06/22 04:07:51;;;;;;;1.80;1.35;;;18.90;1.00;;;;;;5076313;28;20590;-92
2021/06/22 04:10:17;;;;;;;3.17;1.60;;;18.20;1.00;;;;;;5075242;28;20020;-92
2021/06/22 04:12:43;;;;;;;1.75;1.58;;;18.40;1.00;;;;;;5075629;28;20481;-93
2021/06/22 04:15:09;;;;;;;1.30;1.20;;;18.40;1.00;;;;;;5076011;28;20063;-92
2021/06/22 04:17:34;;;;;;;1.75;1.33;;;18.40;1.00;;;;;;5076547;28;20029;-93
2021/06/22 04:20:00;;;;;;;4.97;1.95;;;18.50;1.00;;;;;;5074968;28;20024;-92
2021/06/22 04:22:29;;;;;;;3.83;1.40;;;18.50;1.00;;;;;;5075925;28;20025;-93
2021/06/22 04:24:55;;;;;;;3.60;1.80;;;18.50;1.00;;;;;;5075698;28;20025;-92
2021/06/22 04:27:20;;;;;;;1.85;1.40;;;18.50;1.00;;;;;;5076194;28;20548;-92
2021/06/22 04:29:47;;;;;;;4.18;1.50;;;18.50;1.00;;;;;;5075753;28;20073;-92
2021/06/22 04:32:13;;;;;;;2.00;1.80;;;18.50;1.00;;;;;;5075599;28;20032;-92
2021/06/22 04:34:38;;;;;;;2.83;1.90;;;18.40;1.00;;;;;;5074439;28;20089;-90
2021/06/22 04:37:04;;;;;;;2.45;1.70;;;18.40;1.00;;;;;;5075301;28;20499;-93
2021/06/22 04:39:30;;;;;;;4.63;2.05;;;18.30;1.00;;;;;;5075454;28;20020;-94
2021/06/22 04:41:55;;;;;;;4.97;1.90;;;18.30;1.00;;;;;;5076316;28;20172;-94
2021/06/22 04:44:21;;;;;;;2.00;1.80;;;18.50;1.00;;;;;;5089243;28;20029;-94
2021/06/22 04:46:47;;;;;;;5.00;1.75;;;18.70;1.00;;;;;;5071745;28;20117;-96
2021/06/22 04:49:12;;;;;;;3.35;1.58;;;18.60;1.00;;;;;;5075049;28;20025;-95
2021/06/22 04:51:38;;;;;;;1.80;1.50;;;18.50;1.00;;;;;;5074927;28;20447;-95
2021/06/22 04:54:04;;;;;;;2.65;1.70;;;18.70;1.00;;;;;;5074220;28;20032;-90
2021/06/22 04:56:30;;;;;;;2.28;1.60;;;18.80;1.00;;;;;;5075759;28;20075;-91
2021/06/22 04:58:57;;;;;;;6.07;1.70;;;18.70;1.00;;;;;;5074029;28;20024;-90
2021/06/22 05:01:24;;;;;;;2.42;1.70;;;18.70;1.00;;;;;;5074743;28;20025;-89
2021/06/22 05:03:50;;;;;;;2.63;1.50;;;18.70;1.00;;;;;;5073250;28;20028;-89
2021/06/22 05:06:15;;;;;;;3.78;2.00;;;18.70;1.00;;;;;;5072805;28;20025;-92
2021/06/22 05:08:41;;;;;;;2.38;1.55;;;19.10;1.00;;;;;;5074115;28;20032;-90
2021/06/22 05:11:07;;;;;;;3.95;1.92;;;18.90;1.00;;;;;;5086665;28;20029;-90
2021/06/22 05:13:34;;;;;;;3.05;1.73;;;19.00;1.00;;;;;;5084379;28;20484;-88
2021/06/22 05:16:00;;;;;;;3.60;1.70;;;18.90;1.00;;;;;;5074366;28;20390;-92
2021/06/22 05:18:26;;;;;;;1.55;1.33;;;18.80;1.00;;;;;;5074473;28;20097;-89
2021/06/22 05:20:52;;;;;;;3.20;1.67;;;19.00;1.00;;;;;;5073232;28;20052;-93
2021/06/22 05:23:18;;;;;;;2.53;1.67;;;18.80;1.00;;;;;;5065645;28;20060;-92
2021/06/22 05:25:44;;;;;;;2.70;1.60;;;18.80;1.00;;;;;;5073358;28;20073;-92
2021/06/22 05:28:12;;;;;;;3.33;1.70;;;18.90;1.00;;;;;;5075450;28;20032;-92
2021/06/22 05:30:38;;;;;;;2.72;1.70;;;19.10;1.00;;;;;;5074301;28;20405;-92
2021/06/22 05:33:05;;;;;;;2.17;1.60;;;19.10;1.00;;;;;;5073336;28;20504;-91
2021/06/22 05:35:31;;;;;;;3.15;1.73;;;19.10;1.00;;;;;;5074187;28;20028;-92
2021/06/22 05:37:57;;;;;;;2.55;1.88;;;19.10;1.00;;;;;;5072884;28;20066;-92
2021/06/22 05:40:23;;;;;;;2.20;1.45;;;19.10;1.00;;;;;;5073350;28;20122;-92
2021/06/22 05:42:49;;;;;;;4.00;1.65;;;18.90;1.00;;;;;;5074487;28;20029;-91
2021/06/22 05:45:15;;;;;;;3.08;1.52;;;19.00;1.00;;;;;;5073180;28;20013;-92
2021/06/22 05:47:41;;;;;;;3.92;1.50;;;19.10;1.00;;;;;;5074059;28;20085;-91
2021/06/22 05:50:07;;;;;;;2.90;2.00;;;19.10;1.00;;;;;;5073479;28;20317;-91
2021/06/22 05:52:33;;;;;;;2.40;1.70;;;19.10;1.00;;;;;;5073824;28;20569;-92
2021/06/22 05:54:59;;;;;;;2.53;1.98;;;19.30;1.00;;;;;;5073845;28;20017;-92
2021/06/22 05:57:25;;;;;;;3.35;1.70;;;19.50;1.00;;;;;;5072728;28;20037;-91
2021/06/22 05:59:50;;;;;;;1.60;1.50;;;19.40;1.00;;;;;;5072478;28;20032;-91
2021/06/22 06:02:16;;;;;;;1.67;1.30;;;19.30;1.00;;;;;;5071842;28;20093;-92
2021/06/22 06:04:42;;;;;;;4.50;1.73;;;19.50;1.00;;;;;;5072986;28;20107;-90
2021/06/22 06:07:08;;;;;;;4.72;1.65;;;19.50;1.00;;;;;;5073846;28;20434;-91
2021/06/22 06:09:33;;;;;;;3.58;1.92;;;19.40;1.00;;;;;;5073602;28;20020;-92
2021/06/22 06:11:59;;;;;;;5.22;2.00;;;19.40;1.00;;;;;;5074153;28;20080;-91
2021/06/22 06:14:25;;;;;;;4.60;1.92;;;19.40;1.00;;;;;;5072103;28;20135;-91
2021/06/22 06:16:51;;;;;;;2.40;1.30;;;19.40;1.00;;;;;;5073407;28;20044;-92
2021/06/22 06:19:17;;;;;;;4.30;1.88;;;19.50;1.00;;;;;;5072977;28;20040;-92
2021/06/22 06:21:43;;;;;;;1.83;1.50;;;19.50;1.00;;;;;;5073156;28;20060;-92
2021/06/22 06:24:09;;;;;;;2.38;1.52;;;19.80;1.00;;;;;;5073137;28;20040;-94
2021/06/22 06:29:25;;;;;;;3.50;2.05;;;19.90;1.00;;;;;;5070459;28;20028;-92
2021/06/22 06:31:51;;;;;;;5.03;1.60;;;20.00;1.00;;;;;;5072079;28;20043;-93
2021/06/22 06:34:17;;;;;;;1.23;1.10;;;20.00;1.00;;;;;;5073276;28;20028;-93
2021/06/22 06:36:42;;;;;;;1.98;1.48;;;19.90;1.00;;;;;;5055682;28;20044;-93
2021/06/22 06:39:08;;;;;;;2.70;1.45;;;20.10;1.00;;;;;;5072450;28;20052;-93
2021/06/22 06:41:33;;;;;;;1.60;1.27;;;19.70;1.00;;;;;;5072360;28;20189;-93
2021/06/22 06:43:59;;;;;;;2.20;1.08;;;19.60;1.00;;;;;;5072414;28;20021;-93
2021/06/22 06:46:25;;;;;;;3.33;1.20;;;19.60;1.00;;;;;;5073157;28;20028;-94
2021/06/22 06:48:50;;;;;;;2.83;1.33;;;19.80;1.00;;;;;;5072768;28;20016;-94
2021/06/22 06:51:16;;;;;;;3.35;1.40;;;19.90;1.00;;;;;;5074120;28;20024;-93
2021/06/22 06:53:42;;;;;;;2.00;0.93;;;20.20;1.00;;;;;;5073153;28;20488;-95
2021/06/22 06:56:07;;;;;;;5.28;1.80;;;20.10;1.00;;;;;;5072406;28;20115;-95
2021/06/22 06:58:33;;;;;;;4.60;1.70;;;20.10;1.00;;;;;;5073181;28;20028;-93
2021/06/22 07:00:59;;;;;;;4.45;1.58;;;20.00;1.00;;;;;;5072913;28;20499;-93
2021/06/22 07:03:24;;;;;;;3.00;1.63;;;20.20;1.00;;;;;;5072940;28;20477;-92
2021/06/22 07:05:50;;;;;;;2.70;1.38;;;20.50;1.00;;;;;;5072358;28;20025;-93
2021/06/22 07:08:15;;;;;;;2.58;1.35;;;20.30;1.00;;;;;;5072501;28;20135;-95
2021/06/22 07:10:41;;;;;;;4.22;1.40;;;20.30;1.00;;;;;;5071233;28;20032;-94
2021/06/22 07:13:14;;;;;;;2.28;1.40;;;20.30;1.00;;;;;;5071577;28;20028;-94
2021/06/22 07:15:40;;;;;;;1.40;1.30;;;20.40;1.00;;;;;;5070811;28;20052;-92
2021/06/22 07:18:05;;;;;;;3.00;1.30;;;20.40;1.00;;;;;;5072236;28;20036;-94
2021/06/22 07:20:32;;;;;;;3.03;1.40;;;20.40;1.00;;;;;;5073959;28;20025;-90
2021/06/22 07:22:58;;;;;;;1.55;1.20;;;20.60;1.00;;;;;;5072073;28;20028;-94
2021/06/22 07:25:26;;;;;;;1.95;1.50;;;20.70;1.00;;;;;;5070966;28;20025;-95
2021/06/22 07:27:53;;;;;;;2.60;1.48;;;20.80;1.00;;;;;;5072909;28;20477;-93
2021/06/22 07:30:23;;;;;;;1.30;1.20;;;20.80;1.00;;;;;;5069723;28;20033;-92
2021/06/22 07:32:49;;;;;;;3.03;1.38;;;20.90;1.00;;;;;;5071854;28;20515;-92
2021/06/22 07:35:14;;;;;;;3.42;1.40;;;20.90;1.00;;;;;;5069526;28;20025;-93
2021/06/22 07:37:40;;;;;;;2.90;1.40;;;21.10;1.00;;;;;;5069774;28;20024;-92
2021/06/22 07:40:07;;;;;;;2.20;1.42;;;21.40;99.90;;;;;;5071684;28;20501;-93
2021/06/22 07:42:33;;;;;;;3.00;1.30;;;21.70;1.00;;;;;;5073792;28;20024;-94
2021/06/22 07:44:59;;;;;;;2.85;1.20;;;22.00;99.90;;;;;;5070041;28;20021;-93
2021/06/22 07:47:24;;;;;;;3.58;1.40;;;22.30;99.90;;;;;;5072911;28;20024;-92
2021/06/22 07:49:50;;;;;;;1.85;1.00;;;22.50;99.90;;;;;;5084747;28;20040;-92
2021/06/22 07:52:16;;;;;;;2.85;1.20;;;22.70;99.90;;;;;;5065341;28;20055;-92
2021/06/22 07:54:41;;;;;;;1.27;1.08;;;22.30;99.90;;;;;;5068693;28;20051;-93
2021/06/22 07:57:07;;;;;;;3.10;1.60;;;22.60;99.90;;;;;;5072995;28;20036;-94
2021/06/22 07:59:33;;;;;;;3.30;1.40;;;22.60;99.90;;;;;;5072865;28;20039;-92
2021/06/22 08:01:59;;;;;;;3.67;1.73;;;22.70;99.90;;;;;;5073104;28;20029;-93
2021/06/22 08:04:24;;;;;;;4.07;2.10;;;22.60;99.90;;;;;;5071674;28;20116;-92
2021/06/22 08:06:52;;;;;;;2.38;1.45;;;22.00;99.90;;;;;;5072274;28;20078;-93
2021/06/22 08:09:18;;;;;;;1.30;1.20;;;22.00;99.90;;;;;;5072688;28;20489;-93
2021/06/22 08:11:44;;;;;;;2.38;1.08;;;22.30;99.90;;;;;;5072022;28;20033;-93
2021/06/22 08:14:10;;;;;;;3.22;0.80;;;22.70;99.90;;;;;;5084759;28;20186;-91
2021/06/22 08:16:36;;;;;;;2.30;0.90;;;23.10;99.90;;;;;;5066638;28;20093;-92
2021/06/22 08:19:02;;;;;;;1.13;0.88;;;23.30;99.90;;;;;;5071404;28;20020;-92
2021/06/22 08:21:28;;;;;;;2.88;1.00;;;23.70;99.90;;;;;;5072432;28;20024;-92
2021/06/22 08:23:53;;;;;;;2.17;0.90;;;23.40;99.90;;;;;;5076164;28;20543;-91
2021/06/22 08:26:19;;;;;;;3.83;0.93;;;23.70;99.90;;;;;;5076364;28;20025;-92
2021/06/22 08:28:47;;;;;;;1.75;1.10;;;23.20;99.90;;;;;;5076360;28;20024;-95
2021/06/22 08:31:12;;;;;;;0.80;0.80;;;23.60;99.90;;;;;;5075463;28;20040;-95
2021/06/22 08:33:38;;;;;;;1.02;0.90;;;23.90;99.90;;;;;;5075113;28;20029;-92
2021/06/22 08:36:04;;;;;;;1.10;1.00;;;24.00;99.90;;;;;;5078793;28;20043;-93
2021/06/22 08:38:30;;;;;;;0.82;0.80;;;24.20;99.90;;;;;;5077926;28;20028;-91
2021/06/22 08:40:56;;;;;;;1.00;0.80;;;24.10;99.90;;;;;;5075790;28;20040;-91
2021/06/22 08:43:22;;;;;;;0.80;0.80;;;24.00;99.90;;;;;;5090853;28;20024;-91
2021/06/22 08:45:48;;;;;;;0.82;0.60;;;24.10;99.90;;;;;;5074849;28;20012;-92
2021/06/22 08:48:14;;;;;;;1.02;0.80;;;23.80;99.90;;;;;;5075119;28;20396;-92
2021/06/22 08:50:43;;;;;;;1.33;0.90;;;23.50;99.90;;;;;;5075036;28;20021;-94
2021/06/22 08:53:10;;;;;;;1.00;0.90;;;23.60;99.90;;;;;;5075042;28;20032;-94
2021/06/22 08:55:36;;;;;;;1.73;0.90;;;23.70;99.90;;;;;;5074132;28;20043;-94
2021/06/22 08:58:13;;;;;;;1.00;0.80;;;23.60;99.90;;;;;;5075329;28;20060;-94
2021/06/22 09:00:47;;;;;;;1.80;0.82;;;23.80;99.90;;;;;;5075488;28;20021;-94
2021/06/22 09:03:15;;;;;;;1.10;1.00;;;23.90;99.90;;;;;;5075813;28;20373;-93
2021/06/22 09:05:43;;;;;;;1.50;0.88;;;24.10;99.90;;;;;;5075831;28;20027;-94
2021/06/22 09:08:24;;;;;;;1.67;0.70;;;24.10;99.90;;;;;;5073783;28;20025;-94
2021/06/22 09:10:53;;;;;;;0.70;0.65;;;24.30;99.90;;;;;;5074467;28;20101;-94
2021/06/22 09:13:21;;;;;;;1.33;1.02;;;24.50;99.90;;;;;;5074893;28;20397;-94
2021/06/22 09:15:49;;;;;;;3.15;1.20;;;24.80;99.90;;;;;;5074579;28;20455;-94
2021/06/22 09:18:33;;;;;;;1.40;1.30;;;24.60;99.90;;;;;;5075447;28;20056;-94
2021/06/22 09:21:02;;;;;;;1.38;1.27;;;24.20;99.90;;;;;;5072448;28;20104;-93
2021/06/22 09:23:33;;;;;;;1.73;1.27;;;24.00;99.90;;;;;;5076301;28;20017;-95
2021/06/22 09:26:00;;;;;;;4.95;3.28;;;24.10;99.90;;;;;;5073393;28;20032;-94
2021/06/22 09:28:29;;;;;;;1.63;1.20;;;24.10;99.90;;;;;;5074476;28;20074;-95
2021/06/22 09:31:02;;;;;;;1.75;0.95;;;24.10;99.90;;;;;;5073545;28;20114;-93
2021/06/22 09:33:40;;;;;;;2.08;1.63;;;24.60;99.90;;;;;;5073125;28;20031;-94
2021/06/22 09:36:07;;;;;;;1.40;1.20;;;24.90;99.90;;;;;;5074561;28;20043;-93
2021/06/22 09:38:38;;;;;;;2.53;1.13;;;24.50;99.90;;;;;;5074761;28;20020;-93
2021/06/22 09:41:07;;;;;;;2.20;1.27;;;24.00;99.90;;;;;;5074500;28;20543;-93
2021/06/22 09:44:01;;;;;;;1.63;0.80;;;24.20;99.90;;;;;;5072978;28;20021;-94
2021/06/22 09:46:42;;;;;;;1.00;0.90;;;24.50;99.90;;;;;;5070489;28;20115;-93
2021/06/22 09:49:18;;;;;;;1.30;0.93;;;24.40;99.90;;;;;;5090190;28;20032;-93
2021/06/22 09:54:26;;;;;;;2.15;0.90;;;24.30;99.90;;;;;;5058795;28;20377;-93
2021/06/22 09:57:15;;;;;;;1.10;1.00;;;24.10;99.90;;;;;;5053728;28;20493;-93
2021/06/22 09:59:58;;;;;;;3.72;1.00;;;24.00;99.90;;;;;;5073080;28;20123;-94
2021/06/22 10:02:26;;;;;;;1.40;1.10;;;24.10;99.90;;;;;;5073932;28;20063;-94
2021/06/22 10:04:57;;;;;;;1.42;1.30;;;23.90;99.90;;;;;;5074217;28;20025;-94
2021/06/22 10:07:24;;;;;;;0.98;0.98;;;24.00;99.90;;;;;;5074090;28;20081;-93
2021/06/22 10:09:55;;;;;;;1.10;1.00;;;24.30;99.90;;;;;;5072790;28;20031;-93
2021/06/22 10:12:23;;;;;;;1.10;1.00;;;24.50;99.90;;;;;;5058154;28;20032;-94
2021/06/22 10:14:51;;;;;;;1.42;1.10;;;24.40;99.90;;;;;;5072755;28;20125;-93
2021/06/22 10:17:20;;;;;;;1.10;1.00;;;24.50;99.90;;;;;;5073811;28;20036;-92
2021/06/22 10:19:48;;;;;;;2.00;1.40;;;24.60;99.90;;;;;;5074028;28;20012;-93
2021/06/22 10:22:16;;;;;;;2.55;1.13;;;24.70;99.90;;;;;;5073732;28;20029;-93
2021/06/22 10:24:43;;;;;;;1.73;1.35;;;25.10;99.90;;;;;;5074584;28;20024;-93
2021/06/22 10:27:17;;;;;;;1.58;1.30;;;25.80;99.90;;;;;;5073564;28;20127;-93
2021/06/22 10:29:45;;;;;;;1.75;1.38;;;26.00;99.90;;;;;;5074146;28;20024;-93
2021/06/22 10:32:12;;;;;;;1.95;1.20;;;25.60;99.90;;;;;;5074283;28;20032;-94
2021/06/22 10:34:38;;;;;;;1.45;1.35;;;25.70;99.90;;;;;;5074765;28;20453;-93
2021/06/22 10:37:17;;;;;;;1.30;1.20;;;25.60;99.90;;;;;;5072923;28;20059;-93
2021/06/22 10:39:58;;;;;;;5.65;1.58;;;25.30;99.90;;;;;;5072731;28;20021;-94
2021/06/22 10:42:24;;;;;;;1.40;1.13;;;25.20;99.90;;;;;;5058334;28;20078;-94
2021/06/22 10:45:00;;;;;;;1.77;1.10;;;25.10;99.90;;;;;;5073138;28;20021;-94
2021/06/22 10:47:34;;;;;;;2.28;1.20;;;25.30;99.90;;;;;;5073801;28;20086;-94
2021/06/22 10:50:19;;;;;;;1.65;1.30;;;24.70;99.90;;;;;;5073446;28;20028;-93
2021/06/22 10:52:49;;;;;;;1.25;1.15;;;24.90;99.90;;;;;;5073605;28;20035;-92
2021/06/22 10:55:35;;;;;;;2.78;1.10;;;24.80;99.90;;;;;;5073155;28;20032;-94
2021/06/22 10:58:04;;;;;;;1.63;1.00;;;25.20;99.90;;;;;;5073316;28;20067;-93
2021/06/22 11:00:38;;;;;;;2.10;1.30;;;25.30;99.90;;;;;;5073519;28;20028;-93
2021/06/22 11:03:04;;;;;;;3.67;1.23;;;25.40;99.90;;;;;;5073299;28;20071;-93
2021/06/22 11:05:31;;;;;;;1.23;1.00;;;25.00;99.90;;;;;;5073569;28;20028;-93
2021/06/22 11:08:15;;;;;;;1.23;1.00;;;25.10;99.90;;;;;;5072827;28;20044;-94
2021/06/22 11:10:42;;;;;;;1.83;1.30;;;25.90;99.90;;;;;;5072820;28;20385;-93
2021/06/22 11:13:28;;;;;;;1.40;1.10;;;26.30;99.90;;;;;;5073167;28;20549;-94
2021/06/22 11:15:55;;;;;;;2.53;1.50;;;26.60;99.90;;;;;;5072560;28;20068;-93
2021/06/22 11:18:21;;;;;;;1.55;1.35;;;27.20;99.90;;;;;;5073730;28;20489;-93
2021/06/22 11:21:04;;;;;;;1.85;1.20;;;27.00;99.90;;;;;;5073708;28;20081;-93
2021/06/22 11:23:51;;;;;;;2.92;1.10;;;26.90;99.90;;;;;;5071344;28;20104;-94
2021/06/22 11:26:17;;;;;;;2.47;1.20;;;26.90;99.90;;;;;;5066632;28;20052;-93
2021/06/22 11:28:57;;;;;;;1.40;1.10;;;26.70;99.90;;;;;;5072633;28;20029;-93
2021/06/22 11:31:44;;;;;;;1.75;1.27;;;26.50;99.90;;;;;;5072453;28;20032;-93
2021/06/22 11:34:14;;;;;;;1.60;1.30;;;26.60;99.90;;;;;;5072655;28;20021;-93
2021/06/22 11:36:47;;;;;;;1.70;1.25;;;26.30;99.90;;;;;;5072748;28;20400;-94
2021/06/22 11:39:17;;;;;;;1.55;1.20;;;26.30;99.90;;;;;;5072720;28;20039;-93
2021/06/22 11:42:09;;;;;;;1.30;1.20;;;26.50;99.90;;;;;;5073486;28;20110;-93
2021/06/22 11:44:42;;;;;;;1.40;1.20;;;26.40;99.90;;;;;;5067949;28;20077;-94
2021/06/22 11:47:12;;;;;;;1.40;1.10;;;26.50;99.90;;;;;;5073184;28;20119;-93
2021/06/22 11:49:42;;;;;;;2.85;1.30;;;26.40;99.90;;;;;;5072583;28;20067;-93
2021/06/22 11:52:11;;;;;;;3.10;1.10;;;27.00;99.90;;;;;;5071198;28;20025;-93
2021/06/22 11:54:50;;;;;;;1.45;1.20;;;27.40;99.90;;;;;;5072697;28;20035;-93
2021/06/22 11:57:22;;;;;;;1.45;1.23;;;27.70;99.90;;;;;;5073940;28;20144;-93
2021/06/22 11:59:48;;;;;;;2.28;1.27;;;27.70;99.90;;;;;;5072927;28;20454;-93
2021/06/22 12:02:15;;;;;;;1.08;1.02;;;27.60;99.90;;;;;;5076693;28;20024;-93
2021/06/22 12:04:42;;;;;;;2.95;1.17;;;28.00;99.90;;;;;;5076195;28;20059;-93
2021/06/22 12:07:09;;;;;;;3.28;1.30;;;28.40;99.90;;;;;;5074628;28;20070;-92
2021/06/22 12:09:36;;;;;;;0.98;0.98;;;28.00;99.90;;;;;;5076474;28;20031;-93
2021/06/22 12:12:02;;;;;;;2.78;1.23;;;28.40;99.90;;;;;;5075514;28;20017;-93
2021/06/22 12:14:27;;;;;;;3.03;1.23;;;28.80;99.90;;;;;;5076382;28;20049;-93
2021/06/22 12:16:53;;;;;;;1.20;1.10;;;29.50;99.90;;;;;;5075788;28;20075;-93
2021/06/22 12:19:21;;;;;;;1.63;1.10;;;30.30;99.90;;;;;;5075776;28;20035;-93
2021/06/22 12:21:52;;;;;;;1.10;1.00;;;29.80;99.90;;;;;;5075617;28;20546;-93
2021/06/22 12:24:19;;;;;;;2.08;1.30;;;28.90;99.90;;;;;;5059853;28;20031;-93
2021/06/22 12:26:48;;;;;;;2.30;1.23;;;28.70;99.90;;;;;;5072634;28;20056;-94
2021/06/22 12:29:21;;;;;;;2.30;1.60;;;28.40;99.90;;;;;;5075886;28;20035;-93
2021/06/22 12:31:54;;;;;;;1.65;1.10;;;29.30;99.90;;;;;;5075850;28;20028;-93
2021/06/22 12:34:22;;;;;;;1.00;1.00;;;32.90;99.90;;;;;;5075829;28;20024;-94
2021/06/22 12:36:49;;;;;;;1.05;1.05;;;34.60;99.90;;;;;;5075245;28;20036;-93
2021/06/22 12:39:16;;;;;;;1.13;0.98;;;35.40;99.90;;;;;;5075183;28;20021;-93
2021/06/22 12:41:42;;;;;;;2.13;1.13;;;36.20;99.90;;;;;;5076400;28;20158;-94
2021/06/22 12:44:08;;;;;;;2.15;1.10;;;36.20;99.90;;;;;;5075315;28;20077;-93
2021/06/22 12:46:39;;;;;;;1.42;1.10;;;36.40;99.90;;;;;;5074025;28;20488;-94
2021/06/22 12:49:10;;;;;;;2.38;1.15;;;36.40;99.90;;;;;;5075024;28;20477;-93
2021/06/22 12:51:48;;;;;;;1.60;0.95;;;35.70;99.90;;;;;;5075117;28;20097;-93
2021/06/22 12:54:15;;;;;;;1.98;1.13;;;35.60;99.90;;;;;;5075758;28;20028;-93
2021/06/22 12:56:52;;;;;;;1.27;1.10;;;33.40;99.90;;;;;;5075575;28;20488;-93
2021/06/22 12:59:22;;;;;;;2.05;1.20;;;32.10;99.90;;;;;;5087412;28;20032;-93
2021/06/22 13:01:50;;;;;;;1.90;1.20;;;32.70;99.90;;;;;;5071319;28;20039;-93